sensor_id;sensor_type;location;lat;lon;timestamp;P1;durP1;ratioP1;P2;durP2;ratioP2
42104;SDS011;68365;51.472;5.712;2023-04-28T00:01:48;16.50;;;9.40;;
42104;SDS011;68365;51.472;5.712;2023-04-28T00:04:14;18.60;;;9.95;;
42104;SDS011;68365;51.472;5.712;2023-04-28T00:06:40;17.95;;;9.57;;
42104;SDS011;68365;51.472;5.712;2023-04-28T00:09:06;17.60;;;9.95;;
42104;SDS011;68365;51.472;5.712;2023-04-28T00:11:35;19.45;;;9.85;;
42104;SDS011;68365;51.472;5.712;2023-04-28T00:14:02;16.67;;;9.93;;
42104;SDS011;68365;51.472;5.712;2023-04-28T00:16:29;19.10;;;9.48;;
42104;SDS011;68365;51.472;5.712;2023-04-28T00:18:55;16.70;;;9.35;;
42104;SDS011;68365;51.472;5.712;2023-04-28T00:21:21;18.25;;;9.20;;
42104;SDS011;68365;51.472;5.712;2023-04-28T00:23:47;17.02;;;9.48;;
42104;SDS011;68365;51.472;5.712;2023-04-28T00:26:12;19.23;;;9.70;;
42104;SDS011;68365;51.472;5.712;2023-04-28T00:28:38;15.68;;;8.90;;
42104;SDS011;68365;51.472;5.712;2023-04-28T00:31:11;14.57;;;8.73;;
42104;SDS011;68365;51.472;5.712;2023-04-28T00:33:40;18.52;;;8.90;;
42104;SDS011;68365;51.472;5.712;2023-04-28T00:36:06;18.13;;;9.45;;
42104;SDS011;68365;51.472;5.712;2023-04-28T00:38:33;19.33;;;9.90;;
42104;SDS011;68365;51.472;5.712;2023-04-28T00:40:59;19.02;;;9.25;;
42104;SDS011;68365;51.472;5.712;2023-04-28T00:43:25;17.38;;;8.93;;
42104;SDS011;68365;51.472;5.712;2023-04-28T00:45:51;13.48;;;8.45;;
42104;SDS011;68365;51.472;5.712;2023-04-28T00:48:17;15.68;;;9.07;;
42104;SDS011;68365;51.472;5.712;2023-04-28T00:50:44;15.98;;;8.90;;
42104;SDS011;68365;51.472;5.712;2023-04-28T00:53:11;15.27;;;8.70;;
42104;SDS011;68365;51.472;5.712;2023-04-28T00:55:37;15.65;;;9.05;;
42104;SDS011;68365;51.472;5.712;2023-04-28T00:58:04;16.27;;;8.50;;
42104;SDS011;68365;51.472;5.712;2023-04-28T01:00:30;14.82;;;9.02;;
42104;SDS011;68365;51.472;5.712;2023-04-28T01:02:57;14.10;;;8.70;;
42104;SDS011;68365;51.472;5.712;2023-04-28T01:05:26;13.43;;;8.05;;
42104;SDS011;68365;51.472;5.712;2023-04-28T01:07:54;16.08;;;9.32;;
42104;SDS011;68365;51.472;5.712;2023-04-28T01:10:20;19.05;;;8.65;;
42104;SDS011;68365;51.472;5.712;2023-04-28T01:12:46;14.63;;;8.68;;
42104;SDS011;68365;51.472;5.712;2023-04-28T01:15:16;15.60;;;8.77;;
42104;SDS011;68365;51.472;5.712;2023-04-28T01:17:44;15.77;;;8.90;;
42104;SDS011;68365;51.472;5.712;2023-04-28T01:20:13;16.48;;;8.38;;
42104;SDS011;68365;51.472;5.712;2023-04-28T01:22:40;16.10;;;8.82;;
42104;SDS011;68365;51.472;5.712;2023-04-28T01:25:05;13.48;;;8.05;;
42104;SDS011;68365;51.472;5.712;2023-04-28T01:27:32;13.75;;;8.00;;
42104;SDS011;68365;51.472;5.712;2023-04-28T01:29:57;16.10;;;8.55;;
42104;SDS011;68365;51.472;5.712;2023-04-28T01:32:23;15.88;;;8.93;;
42104;SDS011;68365;51.472;5.712;2023-04-28T01:34:49;14.10;;;7.82;;
42104;SDS011;68365;51.472;5.712;2023-04-28T01:37:15;14.15;;;8.45;;
42104;SDS011;68365;51.472;5.712;2023-04-28T01:39:41;15.48;;;8.30;;
42104;SDS011;68365;51.472;5.712;2023-04-28T01:42:07;12.60;;;7.70;;
42104;SDS011;68365;51.472;5.712;2023-04-28T01:44:33;12.98;;;7.55;;
42104;SDS011;68365;51.472;5.712;2023-04-28T01:46:59;16.02;;;8.45;;
42104;SDS011;68365;51.472;5.712;2023-04-28T01:49:25;16.65;;;8.68;;
42104;SDS011;68365;51.472;5.712;2023-04-28T01:51:50;15.18;;;8.02;;
42104;SDS011;68365;51.472;5.712;2023-04-28T01:54:16;13.95;;;7.82;;
42104;SDS011;68365;51.472;5.712;2023-04-28T01:56:42;13.73;;;7.60;;
42104;SDS011;68365;51.472;5.712;2023-04-28T01:59:08;14.15;;;7.88;;
42104;SDS011;68365;51.472;5.712;2023-04-28T02:01:33;13.50;;;7.78;;
42104;SDS011;68365;51.472;5.712;2023-04-28T02:03:59;11.45;;;7.78;;
42104;SDS011;68365;51.472;5.712;2023-04-28T02:06:25;12.20;;;7.45;;
42104;SDS011;68365;51.472;5.712;2023-04-28T02:08:51;14.10;;;7.38;;
42104;SDS011;68365;51.472;5.712;2023-04-28T02:11:17;13.52;;;7.95;;
42104;SDS011;68365;51.472;5.712;2023-04-28T02:13:43;14.10;;;8.15;;
42104;SDS011;68365;51.472;5.712;2023-04-28T02:16:09;15.27;;;8.45;;
42104;SDS011;68365;51.472;5.712;2023-04-28T02:18:35;13.50;;;7.47;;
42104;SDS011;68365;51.472;5.712;2023-04-28T02:21:07;11.48;;;7.25;;
42104;SDS011;68365;51.472;5.712;2023-04-28T02:23:37;12.80;;;7.50;;
42104;SDS011;68365;51.472;5.712;2023-04-28T02:26:04;13.85;;;7.55;;
42104;SDS011;68365;51.472;5.712;2023-04-28T02:28:30;12.65;;;7.28;;
42104;SDS011;68365;51.472;5.712;2023-04-28T02:31:03;10.75;;;7.05;;
42104;SDS011;68365;51.472;5.712;2023-04-28T02:33:34;12.13;;;7.28;;
42104;SDS011;68365;51.472;5.712;2023-04-28T02:36:00;12.45;;;7.60;;
42104;SDS011;68365;51.472;5.712;2023-04-28T02:38:27;10.77;;;7.03;;
42104;SDS011;68365;51.472;5.712;2023-04-28T02:40:57;12.45;;;6.88;;
42104;SDS011;68365;51.472;5.712;2023-04-28T02:43:25;12.02;;;7.40;;
42104;SDS011;68365;51.472;5.712;2023-04-28T02:45:52;14.70;;;7.97;;
42104;SDS011;68365;51.472;5.712;2023-04-28T02:48:18;12.48;;;7.43;;
42104;SDS011;68365;51.472;5.712;2023-04-28T02:50:44;12.98;;;7.63;;
42104;SDS011;68365;51.472;5.712;2023-04-28T02:53:10;14.30;;;7.10;;
42104;SDS011;68365;51.472;5.712;2023-04-28T02:55:36;11.35;;;6.88;;
42104;SDS011;68365;51.472;5.712;2023-04-28T02:58:03;10.73;;;6.65;;
42104;SDS011;68365;51.472;5.712;2023-04-28T03:00:28;11.05;;;7.00;;
42104;SDS011;68365;51.472;5.712;2023-04-28T03:02:54;11.15;;;6.93;;
42104;SDS011;68365;51.472;5.712;2023-04-28T03:05:20;12.77;;;6.75;;
42104;SDS011;68365;51.472;5.712;2023-04-28T03:07:46;10.98;;;6.90;;
42104;SDS011;68365;51.472;5.712;2023-04-28T03:10:12;9.93;;;6.88;;
42104;SDS011;68365;51.472;5.712;2023-04-28T03:12:38;13.13;;;7.20;;
42104;SDS011;68365;51.472;5.712;2023-04-28T03:15:04;10.40;;;6.45;;
42104;SDS011;68365;51.472;5.712;2023-04-28T03:17:32;10.43;;;6.53;;
42104;SDS011;68365;51.472;5.712;2023-04-28T03:20:00;11.32;;;6.75;;
42104;SDS011;68365;51.472;5.712;2023-04-28T03:22:27;10.68;;;6.65;;
42104;SDS011;68365;51.472;5.712;2023-04-28T03:24:52;11.00;;;6.82;;
42104;SDS011;68365;51.472;5.712;2023-04-28T03:27:18;11.82;;;6.60;;
42104;SDS011;68365;51.472;5.712;2023-04-28T03:29:44;10.18;;;6.65;;
42104;SDS011;68365;51.472;5.712;2023-04-28T03:32:10;11.95;;;6.38;;
42104;SDS011;68365;51.472;5.712;2023-04-28T03:34:36;10.70;;;6.40;;
42104;SDS011;68365;51.472;5.712;2023-04-28T03:37:01;8.77;;;6.32;;
42104;SDS011;68365;51.472;5.712;2023-04-28T03:39:27;10.30;;;6.10;;
42104;SDS011;68365;51.472;5.712;2023-04-28T03:41:53;9.82;;;5.90;;
42104;SDS011;68365;51.472;5.712;2023-04-28T03:44:19;11.60;;;7.00;;
42104;SDS011;68365;51.472;5.712;2023-04-28T03:46:45;11.43;;;6.57;;
42104;SDS011;68365;51.472;5.712;2023-04-28T03:49:12;9.85;;;6.35;;
42104;SDS011;68365;51.472;5.712;2023-04-28T03:51:38;9.82;;;6.07;;
42104;SDS011;68365;51.472;5.712;2023-04-28T03:54:04;10.15;;;6.00;;
42104;SDS011;68365;51.472;5.712;2023-04-28T03:56:29;8.68;;;6.07;;
42104;SDS011;68365;51.472;5.712;2023-04-28T03:58:55;9.80;;;6.40;;
42104;SDS011;68365;51.472;5.712;2023-04-28T04:01:21;11.43;;;6.50;;
42104;SDS011;68365;51.472;5.712;2023-04-28T04:03:47;10.02;;;6.07;;
42104;SDS011;68365;51.472;5.712;2023-04-28T04:06:13;9.05;;;6.25;;
42104;SDS011;68365;51.472;5.712;2023-04-28T04:08:39;9.30;;;6.25;;
42104;SDS011;68365;51.472;5.712;2023-04-28T04:11:05;10.40;;;6.25;;
42104;SDS011;68365;51.472;5.712;2023-04-28T04:13:32;10.88;;;6.35;;
42104;SDS011;68365;51.472;5.712;2023-04-28T04:15:57;11.15;;;6.63;;
42104;SDS011;68365;51.472;5.712;2023-04-28T04:18:23;10.38;;;6.22;;
42104;SDS011;68365;51.472;5.712;2023-04-28T04:20:49;11.32;;;6.07;;
42104;SDS011;68365;51.472;5.712;2023-04-28T04:23:17;9.95;;;6.15;;
42104;SDS011;68365;51.472;5.712;2023-04-28T04:25:43;10.48;;;6.30;;
42104;SDS011;68365;51.472;5.712;2023-04-28T04:28:09;9.90;;;6.57;;
42104;SDS011;68365;51.472;5.712;2023-04-28T04:30:35;10.50;;;6.30;;
42104;SDS011;68365;51.472;5.712;2023-04-28T04:33:01;8.25;;;5.55;;
42104;SDS011;68365;51.472;5.712;2023-04-28T04:35:26;8.95;;;6.03;;
42104;SDS011;68365;51.472;5.712;2023-04-28T04:37:52;8.45;;;5.65;;
42104;SDS011;68365;51.472;5.712;2023-04-28T04:40:18;10.15;;;5.80;;
42104;SDS011;68365;51.472;5.712;2023-04-28T04:42:44;10.13;;;6.07;;
42104;SDS011;68365;51.472;5.712;2023-04-28T04:45:10;8.13;;;5.78;;
42104;SDS011;68365;51.472;5.712;2023-04-28T04:47:36;9.55;;;6.00;;
42104;SDS011;68365;51.472;5.712;2023-04-28T04:50:02;11.43;;;6.13;;
42104;SDS011;68365;51.472;5.712;2023-04-28T04:52:28;8.95;;;6.05;;
42104;SDS011;68365;51.472;5.712;2023-04-28T04:54:54;9.00;;;5.68;;
42104;SDS011;68365;51.472;5.712;2023-04-28T04:57:20;10.15;;;5.90;;
42104;SDS011;68365;51.472;5.712;2023-04-28T04:59:46;9.73;;;5.93;;
42104;SDS011;68365;51.472;5.712;2023-04-28T05:02:12;8.43;;;5.82;;
42104;SDS011;68365;51.472;5.712;2023-04-28T05:04:38;9.95;;;5.85;;
42104;SDS011;68365;51.472;5.712;2023-04-28T05:07:04;8.57;;;5.50;;
42104;SDS011;68365;51.472;5.712;2023-04-28T05:09:29;7.63;;;5.40;;
42104;SDS011;68365;51.472;5.712;2023-04-28T05:11:56;11.48;;;5.95;;
42104;SDS011;68365;51.472;5.712;2023-04-28T05:14:22;9.32;;;5.38;;
42104;SDS011;68365;51.472;5.712;2023-04-28T05:16:47;9.57;;;5.85;;
42104;SDS011;68365;51.472;5.712;2023-04-28T05:19:13;9.77;;;5.90;;
42104;SDS011;68365;51.472;5.712;2023-04-28T05:21:40;7.82;;;5.38;;
42104;SDS011;68365;51.472;5.712;2023-04-28T05:24:05;7.55;;;5.10;;
42104;SDS011;68365;51.472;5.712;2023-04-28T05:26:31;7.95;;;5.20;;
42104;SDS011;68365;51.472;5.712;2023-04-28T05:28:57;9.05;;;6.10;;
42104;SDS011;68365;51.472;5.712;2023-04-28T05:31:23;7.05;;;5.10;;
42104;SDS011;68365;51.472;5.712;2023-04-28T05:33:49;8.60;;;5.40;;
42104;SDS011;68365;51.472;5.712;2023-04-28T05:36:14;9.07;;;5.80;;
42104;SDS011;68365;51.472;5.712;2023-04-28T05:38:41;8.73;;;5.53;;
42104;SDS011;68365;51.472;5.712;2023-04-28T05:41:08;7.70;;;4.90;;
42104;SDS011;68365;51.472;5.712;2023-04-28T05:43:34;7.50;;;5.22;;
42104;SDS011;68365;51.472;5.712;2023-04-28T05:46:00;7.40;;;5.07;;
42104;SDS011;68365;51.472;5.712;2023-04-28T05:48:26;7.32;;;5.38;;
42104;SDS011;68365;51.472;5.712;2023-04-28T05:50:52;7.53;;;5.78;;
42104;SDS011;68365;51.472;5.712;2023-04-28T05:53:18;7.00;;;4.97;;
42104;SDS011;68365;51.472;5.712;2023-04-28T05:55:44;8.23;;;5.93;;
42104;SDS011;68365;51.472;5.712;2023-04-28T05:58:11;8.02;;;5.22;;
42104;SDS011;68365;51.472;5.712;2023-04-28T06:00:36;8.52;;;5.50;;
42104;SDS011;68365;51.472;5.712;2023-04-28T06:03:02;7.15;;;5.05;;
42104;SDS011;68365;51.472;5.712;2023-04-28T06:05:29;10.30;;;5.35;;
42104;SDS011;68365;51.472;5.712;2023-04-28T06:07:55;8.35;;;5.07;;
42104;SDS011;68365;51.472;5.712;2023-04-28T06:10:21;7.43;;;5.07;;
42104;SDS011;68365;51.472;5.712;2023-04-28T06:12:47;8.02;;;5.07;;
42104;SDS011;68365;51.472;5.712;2023-04-28T06:15:13;7.18;;;4.82;;
42104;SDS011;68365;51.472;5.712;2023-04-28T06:17:39;8.27;;;5.28;;
42104;SDS011;68365;51.472;5.712;2023-04-28T06:20:05;9.05;;;5.53;;
42104;SDS011;68365;51.472;5.712;2023-04-28T06:22:32;9.00;;;5.55;;
42104;SDS011;68365;51.472;5.712;2023-04-28T06:24:58;7.10;;;5.10;;
42104;SDS011;68365;51.472;5.712;2023-04-28T06:27:23;8.05;;;5.15;;
42104;SDS011;68365;51.472;5.712;2023-04-28T06:29:49;7.55;;;5.07;;
42104;SDS011;68365;51.472;5.712;2023-04-28T06:32:15;9.93;;;5.63;;
42104;SDS011;68365;51.472;5.712;2023-04-28T06:34:41;5.97;;;4.75;;
42104;SDS011;68365;51.472;5.712;2023-04-28T06:37:07;7.85;;;4.78;;
42104;SDS011;68365;51.472;5.712;2023-04-28T06:39:33;7.43;;;4.68;;
42104;SDS011;68365;51.472;5.712;2023-04-28T06:41:58;7.65;;;5.20;;
42104;SDS011;68365;51.472;5.712;2023-04-28T06:44:26;8.10;;;5.10;;
42104;SDS011;68365;51.472;5.712;2023-04-28T06:46:52;7.03;;;4.95;;
42104;SDS011;68365;51.472;5.712;2023-04-28T06:49:17;7.30;;;5.20;;
42104;SDS011;68365;51.472;5.712;2023-04-28T06:51:43;8.13;;;5.13;;
42104;SDS011;68365;51.472;5.712;2023-04-28T06:54:09;7.50;;;5.00;;
42104;SDS011;68365;51.472;5.712;2023-04-28T06:56:35;6.72;;;4.82;;
42104;SDS011;68365;51.472;5.712;2023-04-28T06:59:01;6.50;;;4.90;;
42104;SDS011;68365;51.472;5.712;2023-04-28T07:01:27;7.38;;;4.95;;
42104;SDS011;68365;51.472;5.712;2023-04-28T07:03:53;6.63;;;4.78;;
42104;SDS011;68365;51.472;5.712;2023-04-28T07:06:18;7.70;;;5.15;;
42104;SDS011;68365;51.472;5.712;2023-04-28T07:08:44;6.80;;;4.65;;
42104;SDS011;68365;51.472;5.712;2023-04-28T07:11:10;6.38;;;4.25;;
42104;SDS011;68365;51.472;5.712;2023-04-28T07:13:36;6.53;;;4.65;;
42104;SDS011;68365;51.472;5.712;2023-04-28T07:16:02;6.75;;;4.90;;
42104;SDS011;68365;51.472;5.712;2023-04-28T07:18:28;7.63;;;4.93;;
42104;SDS011;68365;51.472;5.712;2023-04-28T07:20:54;6.72;;;4.55;;
42104;SDS011;68365;51.472;5.712;2023-04-28T07:23:20;8.10;;;5.07;;
42104;SDS011;68365;51.472;5.712;2023-04-28T07:25:45;7.55;;;5.00;;
42104;SDS011;68365;51.472;5.712;2023-04-28T07:28:11;6.10;;;4.25;;
42104;SDS011;68365;51.472;5.712;2023-04-28T07:30:38;7.47;;;4.80;;
42104;SDS011;68365;51.472;5.712;2023-04-28T07:33:04;6.95;;;4.65;;
42104;SDS011;68365;51.472;5.712;2023-04-28T07:35:30;6.93;;;4.90;;
42104;SDS011;68365;51.472;5.712;2023-04-28T07:37:55;7.13;;;5.07;;
42104;SDS011;68365;51.472;5.712;2023-04-28T07:40:22;9.13;;;4.40;;
42104;SDS011;68365;51.472;5.712;2023-04-28T07:42:48;6.35;;;4.80;;
42104;SDS011;68365;51.472;5.712;2023-04-28T07:45:14;8.82;;;5.28;;
42104;SDS011;68365;51.472;5.712;2023-04-28T07:47:40;7.22;;;4.68;;
42104;SDS011;68365;51.472;5.712;2023-04-28T07:50:06;6.70;;;4.68;;
42104;SDS011;68365;51.472;5.712;2023-04-28T07:52:33;8.32;;;5.10;;
42104;SDS011;68365;51.472;5.712;2023-04-28T07:54:59;8.52;;;4.80;;
42104;SDS011;68365;51.472;5.712;2023-04-28T07:57:26;38.97;;;5.43;;
42104;SDS011;68365;51.472;5.712;2023-04-28T07:59:55;6.65;;;4.90;;
42104;SDS011;68365;51.472;5.712;2023-04-28T08:02:21;6.93;;;4.95;;
42104;SDS011;68365;51.472;5.712;2023-04-28T08:04:47;7.05;;;5.22;;
42104;SDS011;68365;51.472;5.712;2023-04-28T08:07:13;5.85;;;4.65;;
42104;SDS011;68365;51.472;5.712;2023-04-28T08:09:39;10.05;;;5.05;;
42104;SDS011;68365;51.472;5.712;2023-04-28T08:12:06;7.70;;;5.15;;
42104;SDS011;68365;51.472;5.712;2023-04-28T08:14:32;8.60;;;5.25;;
42104;SDS011;68365;51.472;5.712;2023-04-28T08:16:58;8.82;;;5.85;;
42104;SDS011;68365;51.472;5.712;2023-04-28T08:19:24;7.95;;;5.35;;
42104;SDS011;68365;51.472;5.712;2023-04-28T08:21:51;8.52;;;4.57;;
42104;SDS011;68365;51.472;5.712;2023-04-28T08:24:16;8.82;;;5.32;;
42104;SDS011;68365;51.472;5.712;2023-04-28T08:26:43;6.60;;;4.90;;
42104;SDS011;68365;51.472;5.712;2023-04-28T08:29:08;7.78;;;5.40;;
42104;SDS011;68365;51.472;5.712;2023-04-28T08:31:34;7.80;;;5.20;;
42104;SDS011;68365;51.472;5.712;2023-04-28T08:34:00;6.80;;;4.95;;
42104;SDS011;68365;51.472;5.712;2023-04-28T08:36:26;6.15;;;4.40;;
42104;SDS011;68365;51.472;5.712;2023-04-28T08:38:56;8.38;;;5.22;;
42104;SDS011;68365;51.472;5.712;2023-04-28T08:41:23;8.18;;;4.80;;
42104;SDS011;68365;51.472;5.712;2023-04-28T08:43:52;6.82;;;4.70;;
42104;SDS011;68365;51.472;5.712;2023-04-28T08:46:18;13.95;;;5.30;;
42104;SDS011;68365;51.472;5.712;2023-04-28T08:48:46;9.30;;;5.15;;
42104;SDS011;68365;51.472;5.712;2023-04-28T08:51:15;6.78;;;5.32;;
42104;SDS011;68365;51.472;5.712;2023-04-28T08:53:52;8.35;;;4.65;;
42104;SDS011;68365;51.472;5.712;2023-04-28T08:56:20;6.43;;;4.78;;
42104;SDS011;68365;51.472;5.712;2023-04-28T08:58:48;7.05;;;4.03;;
42104;SDS011;68365;51.472;5.712;2023-04-28T09:01:16;12.82;;;4.30;;
42104;SDS011;68365;51.472;5.712;2023-04-28T09:03:42;6.40;;;4.30;;
42104;SDS011;68365;51.472;5.712;2023-04-28T09:06:08;6.90;;;4.55;;
42104;SDS011;68365;51.472;5.712;2023-04-28T09:08:34;5.80;;;4.10;;
42104;SDS011;68365;51.472;5.712;2023-04-28T09:13:33;12.70;;;4.80;;
42104;SDS011;68365;51.472;5.712;2023-04-28T09:15:59;8.65;;;4.15;;
42104;SDS011;68365;51.472;5.712;2023-04-28T09:18:27;18.10;;;8.60;;
42104;SDS011;68365;51.472;5.712;2023-04-28T09:21:03;11.35;;;8.90;;
42104;SDS011;68365;51.472;5.712;2023-04-28T09:23:34;9.35;;;5.82;;
42104;SDS011;68365;51.472;5.712;2023-04-28T09:26:14;8.88;;;6.10;;
42104;SDS011;68365;51.472;5.712;2023-04-28T09:28:40;9.13;;;6.40;;
42104;SDS011;68365;51.472;5.712;2023-04-28T09:31:18;9.10;;;6.65;;
42104;SDS011;68365;51.472;5.712;2023-04-28T09:33:55;11.73;;;6.68;;
42104;SDS011;68365;51.472;5.712;2023-04-28T09:36:28;9.90;;;5.95;;
42104;SDS011;68365;51.472;5.712;2023-04-28T09:38:57;11.48;;;5.75;;
42104;SDS011;68365;51.472;5.712;2023-04-28T09:41:40;8.93;;;5.47;;
42104;SDS011;68365;51.472;5.712;2023-04-28T09:44:11;12.68;;;8.18;;
42104;SDS011;68365;51.472;5.712;2023-04-28T09:46:43;12.48;;;8.70;;
42104;SDS011;68365;51.472;5.712;2023-04-28T09:49:10;9.73;;;6.35;;
42104;SDS011;68365;51.472;5.712;2023-04-28T09:51:37;9.98;;;6.90;;
42104;SDS011;68365;51.472;5.712;2023-04-28T09:54:03;7.88;;;6.13;;
42104;SDS011;68365;51.472;5.712;2023-04-28T09:56:31;10.05;;;6.78;;
42104;SDS011;68365;51.472;5.712;2023-04-28T09:58:59;11.93;;;6.45;;
42104;SDS011;68365;51.472;5.712;2023-04-28T10:01:26;13.52;;;6.00;;
42104;SDS011;68365;51.472;5.712;2023-04-28T10:04:04;9.05;;;6.45;;
42104;SDS011;68365;51.472;5.712;2023-04-28T10:06:34;10.55;;;6.30;;
42104;SDS011;68365;51.472;5.712;2023-04-28T10:09:04;10.27;;;6.57;;
42104;SDS011;68365;51.472;5.712;2023-04-28T10:11:31;12.15;;;6.63;;
42104;SDS011;68365;51.472;5.712;2023-04-28T10:13:58;9.25;;;6.15;;
42104;SDS011;68365;51.472;5.712;2023-04-28T10:16:42;11.45;;;5.65;;
42104;SDS011;68365;51.472;5.712;2023-04-28T11:45:45;8.30;;;5.03;;
42104;SDS011;68365;51.472;5.712;2023-04-28T11:48:21;10.80;;;4.97;;
42104;SDS011;68365;51.472;5.712;2023-04-28T11:50:53;14.98;;;5.45;;
42104;SDS011;68365;51.472;5.712;2023-04-28T11:53:39;13.88;;;5.68;;
42104;SDS011;68365;51.472;5.712;2023-04-28T12:04:00;14.50;;;5.20;;
42104;SDS011;68365;51.472;5.712;2023-04-28T12:25:41;6.63;;;4.90;;
42104;SDS011;68365;51.472;5.712;2023-04-28T12:35:26;5.70;;;4.57;;
42104;SDS011;68365;51.472;5.712;2023-04-28T12:37:56;10.15;;;4.93;;
42104;SDS011;68365;51.472;5.712;2023-04-28T12:40:23;7.47;;;4.53;;
42104;SDS011;68365;51.472;5.712;2023-04-28T12:42:49;8.55;;;4.10;;
42104;SDS011;68365;51.472;5.712;2023-04-28T12:45:34;12.93;;;5.00;;
42104;SDS011;68365;51.472;5.712;2023-04-28T12:48:12;7.97;;;4.30;;
42104;SDS011;68365;51.472;5.712;2023-04-28T12:50:39;8.30;;;4.50;;
42104;SDS011;68365;51.472;5.712;2023-04-28T12:59:37;7.72;;;4.90;;
42104;SDS011;68365;51.472;5.712;2023-04-28T13:02:06;10.48;;;5.32;;
42104;SDS011;68365;51.472;5.712;2023-04-28T13:05:46;8.13;;;5.57;;
42104;SDS011;68365;51.472;5.712;2023-04-28T13:08:12;8.68;;;5.70;;
42104;SDS011;68365;51.472;5.712;2023-04-28T13:14:02;8.57;;;6.18;;
42104;SDS011;68365;51.472;5.712;2023-04-28T13:19:18;9.50;;;5.65;;
42104;SDS011;68365;51.472;5.712;2023-04-28T13:33:16;23.00;;;5.43;;
42104;SDS011;68365;51.472;5.712;2023-04-28T13:36:41;12.48;;;5.32;;
42104;SDS011;68365;51.472;5.712;2023-04-28T13:39:23;8.75;;;5.07;;
42104;SDS011;68365;51.472;5.712;2023-04-28T13:48:30;10.52;;;5.10;;
42104;SDS011;68365;51.472;5.712;2023-04-28T13:56:52;12.05;;;5.05;;
42104;SDS011;68365;51.472;5.712;2023-04-28T14:02:12;9.38;;;4.68;;
42104;SDS011;68365;51.472;5.712;2023-04-28T14:04:43;8.32;;;4.85;;
42104;SDS011;68365;51.472;5.712;2023-04-28T14:07:27;5.82;;;4.50;;
42104;SDS011;68365;51.472;5.712;2023-04-28T14:10:39;9.05;;;4.25;;
42104;SDS011;68365;51.472;5.712;2023-04-28T14:16:30;12.20;;;4.82;;
42104;SDS011;68365;51.472;5.712;2023-04-28T14:25:51;12.30;;;4.40;;
42104;SDS011;68365;51.472;5.712;2023-04-28T14:28:49;13.77;;;4.45;;
42104;SDS011;68365;51.472;5.712;2023-04-28T14:31:31;8.30;;;4.65;;
42104;SDS011;68365;51.472;5.712;2023-04-28T14:34:29;6.28;;;4.22;;
42104;SDS011;68365;51.472;5.712;2023-04-28T14:49:39;10.82;;;4.50;;
42104;SDS011;68365;51.472;5.712;2023-04-28T15:10:26;8.18;;;4.40;;
42104;SDS011;68365;51.472;5.712;2023-04-28T15:28:47;10.07;;;4.17;;
42104;SDS011;68365;51.472;5.712;2023-04-28T15:32:26;15.50;;;4.28;;
42104;SDS011;68365;51.472;5.712;2023-04-28T15:34:56;11.00;;;4.43;;
42104;SDS011;68365;51.472;5.712;2023-04-28T15:40:48;10.80;;;4.30;;
42104;SDS011;68365;51.472;5.712;2023-04-28T15:43:14;15.45;;;4.40;;
42104;SDS011;68365;51.472;5.712;2023-04-28T15:45:43;9.50;;;4.40;;
42104;SDS011;68365;51.472;5.712;2023-04-28T15:48:26;9.35;;;4.10;;
42104;SDS011;68365;51.472;5.712;2023-04-28T15:51:10;11.95;;;4.43;;
42104;SDS011;68365;51.472;5.712;2023-04-28T15:56:16;12.15;;;4.55;;
42104;SDS011;68365;51.472;5.712;2023-04-28T16:02:21;15.00;;;4.40;;
42104;SDS011;68365;51.472;5.712;2023-04-28T16:05:06;11.63;;;4.30;;
42104;SDS011;68365;51.472;5.712;2023-04-28T16:11:17;8.07;;;4.55;;
42104;SDS011;68365;51.472;5.712;2023-04-28T16:13:48;8.60;;;4.57;;
42104;SDS011;68365;51.472;5.712;2023-04-28T16:16:26;11.15;;;4.60;;
42104;SDS011;68365;51.472;5.712;2023-04-28T16:19:55;10.10;;;4.25;;
42104;SDS011;68365;51.472;5.712;2023-04-28T16:38:19;12.25;;;4.30;;
42104;SDS011;68365;51.472;5.712;2023-04-28T16:41:05;14.40;;;4.45;;
42104;SDS011;68365;51.472;5.712;2023-04-28T16:54:46;9.10;;;4.60;;
42104;SDS011;68365;51.472;5.712;2023-04-28T16:57:33;10.55;;;4.35;;
42104;SDS011;68365;51.472;5.712;2023-04-28T17:00:05;18.00;;;4.80;;
42104;SDS011;68365;51.472;5.712;2023-04-28T17:02:44;12.38;;;4.20;;
42104;SDS011;68365;51.472;5.712;2023-04-28T17:05:36;12.35;;;4.18;;
42104;SDS011;68365;51.472;5.712;2023-04-28T17:08:08;16.63;;;4.45;;
42104;SDS011;68365;51.472;5.712;2023-04-28T17:10:36;10.35;;;4.20;;
42104;SDS011;68365;51.472;5.712;2023-04-28T17:13:02;13.40;;;4.78;;
42104;SDS011;68365;51.472;5.712;2023-04-28T17:15:35;14.18;;;4.88;;
42104;SDS011;68365;51.472;5.712;2023-04-28T17:18:01;35.05;;;12.98;;
42104;SDS011;68365;51.472;5.712;2023-04-28T17:20:27;37.80;;;13.18;;
42104;SDS011;68365;51.472;5.712;2023-04-28T17:22:56;65.28;;;21.75;;
42104;SDS011;68365;51.472;5.712;2023-04-28T17:25:51;75.43;;;24.27;;
42104;SDS011;68365;51.472;5.712;2023-04-28T17:28:28;77.65;;;26.13;;
42104;SDS011;68365;51.472;5.712;2023-04-28T17:31:08;81.57;;;26.98;;
42104;SDS011;68365;51.472;5.712;2023-04-28T17:33:37;76.15;;;26.17;;
42104;SDS011;68365;51.472;5.712;2023-04-28T17:36:41;84.07;;;27.08;;
42104;SDS011;68365;51.472;5.712;2023-04-28T17:41:55;85.88;;;26.08;;
42104;SDS011;68365;51.472;5.712;2023-04-28T17:44:52;71.75;;;26.15;;
42104;SDS011;68365;51.472;5.712;2023-04-28T17:47:18;72.37;;;26.70;;
42104;SDS011;68365;51.472;5.712;2023-04-28T17:49:53;79.95;;;27.08;;
42104;SDS011;68365;51.472;5.712;2023-04-28T17:52:28;79.55;;;26.35;;
42104;SDS011;68365;51.472;5.712;2023-04-28T18:02:57;66.65;;;25.70;;
42104;SDS011;68365;51.472;5.712;2023-04-28T18:23:18;61.50;;;22.65;;
42104;SDS011;68365;51.472;5.712;2023-04-28T18:51:53;45.08;;;21.23;;
42104;SDS011;68365;51.472;5.712;2023-04-28T18:58:18;53.78;;;20.70;;
42104;SDS011;68365;51.472;5.712;2023-04-28T19:03:48;51.13;;;18.52;;
42104;SDS011;68365;51.472;5.712;2023-04-28T19:06:42;44.83;;;18.90;;
42104;SDS011;68365;51.472;5.712;2023-04-28T19:12:35;48.53;;;18.98;;
42104;SDS011;68365;51.472;5.712;2023-04-28T19:15:16;50.80;;;18.33;;
42104;SDS011;68365;51.472;5.712;2023-04-28T19:18:05;44.50;;;17.70;;
42104;SDS011;68365;51.472;5.712;2023-04-28T19:20:31;43.85;;;18.02;;
42104;SDS011;68365;51.472;5.712;2023-04-28T19:26:55;43.20;;;16.45;;
42104;SDS011;68365;51.472;5.712;2023-04-28T19:29:25;41.25;;;16.65;;
42104;SDS011;68365;51.472;5.712;2023-04-28T19:32:01;32.53;;;15.90;;
42104;SDS011;68365;51.472;5.712;2023-04-28T19:39:22;35.22;;;15.20;;
42104;SDS011;68365;51.472;5.712;2023-04-28T19:42:01;34.65;;;14.93;;
42104;SDS011;68365;51.472;5.712;2023-04-28T19:44:58;33.22;;;14.65;;
42104;SDS011;68365;51.472;5.712;2023-04-28T19:47:28;32.13;;;14.40;;
42104;SDS011;68365;51.472;5.712;2023-04-28T19:50:25;34.55;;;15.38;;
42104;SDS011;68365;51.472;5.712;2023-04-28T19:52:51;27.20;;;14.07;;
42104;SDS011;68365;51.472;5.712;2023-04-28T19:55:17;26.20;;;14.52;;
42104;SDS011;68365;51.472;5.712;2023-04-28T19:57:53;31.70;;;13.82;;
42104;SDS011;68365;51.472;5.712;2023-04-28T20:00:25;31.77;;;14.07;;
42104;SDS011;68365;51.472;5.712;2023-04-28T20:02:54;33.35;;;13.70;;
42104;SDS011;68365;51.472;5.712;2023-04-28T20:05:20;31.20;;;13.90;;
42104;SDS011;68365;51.472;5.712;2023-04-28T20:07:47;27.17;;;13.38;;
42104;SDS011;68365;51.472;5.712;2023-04-28T20:10:19;34.53;;;13.43;;
42104;SDS011;68365;51.472;5.712;2023-04-28T20:12:56;33.28;;;13.35;;
42104;SDS011;68365;51.472;5.712;2023-04-28T20:15:22;31.58;;;12.55;;
42104;SDS011;68365;51.472;5.712;2023-04-28T20:17:48;23.90;;;12.10;;
42104;SDS011;68365;51.472;5.712;2023-04-28T20:20:14;24.35;;;11.60;;
42104;SDS011;68365;51.472;5.712;2023-04-28T20:22:40;27.20;;;11.60;;
42104;SDS011;68365;51.472;5.712;2023-04-28T20:25:07;27.38;;;12.25;;
42104;SDS011;68365;51.472;5.712;2023-04-28T20:27:34;24.83;;;12.18;;